Time;durP1;ratioP1;P1;durP2;ratioP2;P2;SDS_P1;SDS_P2;PMS_P1;PMS_P2;Temp;Humidity;BMP_temperature;BMP_pressure;BME280_temperature;BME280_humidity;BME280_pressure;Samples;Min_cycle;Max_cycle;Signal;HPM_P1;HPM_P2
2023/08/11 00:01:43;;;;;;;3.00;1.60;;;18.30;99.90;;;;;;4230649;28;20051;-80
2023/08/11 00:03:44;;;;;;;6.47;2.55;;;18.30;99.90;;;;;;4231316;28;20066;-81
2023/08/11 00:05:45;;;;;;;3.72;1.70;;;18.30;99.90;;;;;;4229379;28;20051;-81
2023/08/11 00:07:51;;;;;;;3.67;2.15;;;18.30;99.90;;;;;;4229895;28;20545;-80
2023/08/11 00:09:52;;;;;;;3.58;2.40;;;18.30;99.90;;;;;;4230625;28;20083;-81
2023/08/11 00:11:53;;;;;;;3.72;1.98;;;18.20;99.90;;;;;;4230396;28;20062;-81
2023/08/11 00:13:53;;;;;;;2.38;1.60;;;18.20;99.90;;;;;;4229557;28;20051;-81
2023/08/11 00:15:55;;;;;;;5.53;1.60;;;18.10;99.90;;;;;;4230519;28;20043;-81
2023/08/11 00:18:02;;;;;;;3.22;1.55;;;18.10;99.90;;;;;;4231088;28;20083;-81
2023/08/11 00:20:05;;;;;;;4.78;1.90;;;18.10;99.90;;;;;;4230630;28;20043;-81
2023/08/11 00:22:06;;;;;;;6.53;2.25;;;18.00;99.90;;;;;;4230592;28;20051;-81
2023/08/11 00:24:07;;;;;;;3.75;2.00;;;18.00;99.90;;;;;;4231081;28;20130;-81
2023/08/11 00:26:08;;;;;;;3.13;1.38;;;17.90;99.90;;;;;;4230940;28;20044;-81
2023/08/11 00:28:09;;;;;;;3.25;1.70;;;17.90;99.90;;;;;;4212102;28;20101;-81
2023/08/11 00:30:10;;;;;;;4.38;1.70;;;17.80;99.90;;;;;;4230768;28;20042;-81
2023/08/11 00:32:11;;;;;;;4.32;1.73;;;17.80;99.90;;;;;;4230422;28;20054;-81
2023/08/11 00:34:11;;;;;;;5.55;1.83;;;17.70;99.90;;;;;;4230780;28;20043;-81
2023/08/11 00:36:13;;;;;;;3.05;1.83;;;17.70;99.90;;;;;;4230457;28;20040;-81
2023/08/11 00:38:14;;;;;;;5.97;2.38;;;17.70;99.90;;;;;;4230349;28;20101;-81
2023/08/11 00:40:15;;;;;;;10.07;2.22;;;17.60;99.90;;;;;;4230966;28;20547;-81
2023/08/11 00:42:15;;;;;;;4.20;1.90;;;17.60;99.90;;;;;;4229262;28;20047;-81
2023/08/11 00:44:16;;;;;;;4.90;2.30;;;17.50;99.90;;;;;;4230624;28;20122;-81
2023/08/11 00:46:21;;;;;;;3.58;1.95;;;17.50;99.90;;;;;;4228851;28;20047;-81
2023/08/11 00:48:22;;;;;;;4.07;2.35;;;17.50;99.90;;;;;;4230528;28;20047;-81
2023/08/11 00:50:23;;;;;;;2.30;1.63;;;17.50;99.90;;;;;;4230547;28;20450;-81
2023/08/11 00:52:23;;;;;;;6.03;2.00;;;17.40;99.90;;;;;;4230587;28;20051;-81
2023/08/11 00:54:26;;;;;;;6.70;2.08;;;17.40;99.90;;;;;;4230821;28;20678;-81
2023/08/11 00:56:27;;;;;;;4.03;2.05;;;17.30;99.90;;;;;;4229008;28;20474;-81
2023/08/11 00:58:29;;;;;;;5.28;2.25;;;17.30;99.90;;;;;;4230085;28;20048;-81
2023/08/11 01:00:30;;;;;;;4.72;2.20;;;17.30;99.90;;;;;;4230346;28;20044;-81
2023/08/11 01:02:30;;;;;;;5.13;2.83;;;17.20;99.90;;;;;;4228978;28;20081;-81
2023/08/11 01:04:31;;;;;;;4.68;2.40;;;17.20;99.90;;;;;;4230172;28;20511;-81
2023/08/11 01:07:03;;;;;;;2.95;2.03;;;17.30;99.90;;;;;;4212155;28;20044;-81
2023/08/11 01:09:23;;;;;;;5.85;2.20;;;17.10;99.90;;;;;;4231014;28;20043;-80
2023/08/11 01:11:45;;;;;;;3.90;2.42;;;17.10;99.90;;;;;;4233407;28;20481;-81
2023/08/11 01:13:55;;;;;;;5.95;2.85;;;17.10;99.90;;;;;;4233775;28;20108;-80
2023/08/11 01:15:58;;;;;;;4.68;2.17;;;17.00;99.90;;;;;;4233355;28;20059;-80
2023/08/11 01:18:00;;;;;;;4.30;2.53;;;17.00;99.90;;;;;;4232001;28;20090;-81
2023/08/11 01:20:06;;;;;;;3.88;2.70;;;17.00;99.90;;;;;;4232125;28;20100;-80
2023/08/11 01:22:13;;;;;;;5.05;2.50;;;17.00;99.90;;;;;;4233005;28;20486;-80
2023/08/11 01:24:15;;;;;;;6.78;2.88;;;16.90;99.90;;;;;;4233806;27;20051;-80
2023/08/11 01:26:16;;;;;;;4.63;2.95;;;16.90;99.90;;;;;;4232187;28;20039;-80
2023/08/11 01:28:17;;;;;;;7.13;3.05;;;16.90;99.90;;;;;;4233548;28;20043;-80
2023/08/11 01:30:18;;;;;;;5.25;2.80;;;16.90;99.90;;;;;;4215156;28;20093;-80
2023/08/11 01:32:18;;;;;;;4.47;2.72;;;16.80;99.90;;;;;;4232468;28;20222;-80
2023/08/11 01:34:19;;;;;;;7.55;2.78;;;16.80;99.90;;;;;;4233322;28;20044;-80
2023/08/11 01:36:20;;;;;;;5.25;2.90;;;16.80;99.90;;;;;;4233143;28;20057;-80
2023/08/11 01:38:20;;;;;;;12.98;4.20;;;16.80;99.90;;;;;;4232096;28;20075;-80
2023/08/11 01:40:22;;;;;;;6.97;3.10;;;16.80;99.90;;;;;;4224810;28;20044;-79
2023/08/11 01:42:23;;;;;;;6.72;3.30;;;16.70;99.90;;;;;;4250896;28;20088;-79
2023/08/11 01:44:25;;;;;;;4.97;3.75;;;16.70;99.90;;;;;;4250211;28;20040;-79
2023/08/11 01:46:28;;;;;;;5.47;3.10;;;16.70;99.90;;;;;;4235127;28;20036;-80
2023/08/11 01:48:30;;;;;;;6.57;3.35;;;16.70;99.90;;;;;;4215929;28;20047;-80
2023/08/11 01:50:33;;;;;;;5.82;3.50;;;16.70;99.90;;;;;;4233440;28;20040;-81
2023/08/11 01:52:36;;;;;;;5.68;3.58;;;16.60;99.90;;;;;;4231451;28;20051;-80
2023/08/11 01:54:37;;;;;;;4.43;2.97;;;16.60;99.90;;;;;;4233155;28;20522;-81
2023/08/11 01:56:39;;;;;;;6.15;3.00;;;16.60;99.90;;;;;;4233058;28;20048;-81
2023/08/11 01:58:40;;;;;;;5.72;3.65;;;16.50;99.90;;;;;;4233321;28;20054;-80
2023/08/11 02:00:41;;;;;;;6.43;3.45;;;16.50;99.90;;;;;;4214410;28;20122;-80
2023/08/11 02:02:45;;;;;;;10.25;3.47;;;16.50;99.90;;;;;;4232789;28;20415;-81
2023/08/11 02:04:46;;;;;;;7.20;3.80;;;16.50;99.90;;;;;;4233197;28;20047;-80
2023/08/11 02:06:46;;;;;;;7.53;3.58;;;16.50;99.90;;;;;;4233007;28;20044;-80
2023/08/11 02:08:47;;;;;;;5.80;4.15;;;16.40;99.90;;;;;;4231952;28;20119;-80
2023/08/11 02:10:48;;;;;;;6.95;4.60;;;16.40;99.90;;;;;;4231413;28;20047;-80
2023/08/11 02:12:48;;;;;;;8.00;4.28;;;16.40;99.90;;;;;;4233365;28;20047;-81
2023/08/11 02:14:49;;;;;;;7.85;4.38;;;16.40;99.90;;;;;;4232720;28;20078;-80
2023/08/11 02:16:50;;;;;;;6.60;4.15;;;16.40;99.90;;;;;;4232525;28;20048;-80
2023/08/11 02:18:51;;;;;;;11.48;4.90;;;16.40;99.90;;;;;;4232936;28;20093;-80
2023/08/11 02:20:51;;;;;;;10.27;4.65;;;16.40;99.90;;;;;;4231227;28;20093;-80
2023/08/11 02:22:52;;;;;;;8.45;4.70;;;16.50;99.90;;;;;;4214268;28;20478;-80
2023/08/11 02:24:53;;;;;;;8.88;5.03;;;16.40;99.90;;;;;;4214904;28;20097;-81
2023/08/11 02:26:56;;;;;;;10.32;5.35;;;16.50;99.90;;;;;;4232710;28;20487;-80
2023/08/11 02:28:57;;;;;;;10.68;5.05;;;16.40;99.90;;;;;;4232887;28;20048;-80
2023/08/11 02:30:58;;;;;;;7.47;4.60;;;16.40;99.90;;;;;;4231303;28;20035;-80
2023/08/11 02:32:59;;;;;;;7.80;4.90;;;16.40;99.90;;;;;;4232344;28;20043;-81
2023/08/11 02:35:01;;;;;;;10.13;5.57;;;16.40;99.90;;;;;;4214249;28;20040;-81
2023/08/11 02:37:01;;;;;;;7.70;5.13;;;16.30;99.90;;;;;;4232713;28;20035;-81
2023/08/11 02:39:05;;;;;;;7.40;5.25;;;16.30;99.90;;;;;;4232229;28;20093;-81
2023/08/11 02:41:05;;;;;;;9.90;5.40;;;16.40;99.90;;;;;;4233210;28;20564;-80
2023/08/11 02:43:07;;;;;;;6.97;4.35;;;16.30;99.90;;;;;;4231366;28;20059;-81
2023/08/11 02:45:10;;;;;;;15.05;6.00;;;16.40;99.90;;;;;;4231036;28;20453;-81
2023/08/11 02:47:10;;;;;;;8.45;5.13;;;16.30;99.90;;;;;;4213760;28;20048;-81
2023/08/11 02:49:11;;;;;;;11.93;6.55;;;16.30;99.90;;;;;;4237947;28;20043;-80
2023/08/11 02:51:12;;;;;;;10.57;5.63;;;16.20;99.90;;;;;;4236518;28;20108;-81
2023/08/11 02:53:13;;;;;;;8.18;5.57;;;16.20;99.90;;;;;;4231257;28;20079;-81
2023/08/11 02:55:13;;;;;;;8.80;5.47;;;16.20;99.90;;;;;;4231835;28;20039;-81
2023/08/11 02:57:14;;;;;;;10.45;6.05;;;16.20;99.90;;;;;;4231867;28;20128;-81
2023/08/11 02:59:15;;;;;;;11.65;5.97;;;16.20;99.90;;;;;;4231670;28;20040;-81
2023/08/11 03:01:16;;;;;;;11.40;6.22;;;16.20;99.90;;;;;;4231829;28;20519;-81
2023/08/11 03:03:17;;;;;;;11.18;6.70;;;16.20;99.90;;;;;;4232526;28;20047;-81
2023/08/11 03:05:19;;;;;;;9.38;6.40;;;16.20;99.90;;;;;;4230905;28;20047;-81
2023/08/11 03:07:20;;;;;;;8.73;5.90;;;16.10;99.90;;;;;;4231460;28;20048;-80
2023/08/11 03:09:21;;;;;;;9.45;6.53;;;16.10;99.90;;;;;;4231536;28;20524;-80
2023/08/11 03:11:21;;;;;;;12.70;6.50;;;16.10;99.90;;;;;;4231372;28;20503;-81
2023/08/11 03:13:22;;;;;;;9.90;6.60;;;16.20;99.90;;;;;;4230409;28;20050;-81
2023/08/11 03:15:23;;;;;;;10.18;6.82;;;16.10;99.90;;;;;;4230613;28;20127;-81
2023/08/11 03:17:24;;;;;;;15.27;7.10;;;16.10;99.90;;;;;;4231535;28;20090;-81
2023/08/11 03:19:25;;;;;;;10.45;7.15;;;16.10;99.90;;;;;;4231756;28;20057;-81
2023/08/11 03:21:25;;;;;;;11.02;7.32;;;16.00;99.90;;;;;;4230253;28;20043;-80
2023/08/11 03:23:27;;;;;;;12.30;7.47;;;16.00;99.90;;;;;;4212607;28;20090;-80
2023/08/11 03:25:28;;;;;;;10.98;6.68;;;16.00;99.90;;;;;;4230471;28;20118;-80
2023/08/11 03:27:29;;;;;;;11.98;6.38;;;16.00;99.90;;;;;;4231163;28;20043;-80
2023/08/11 03:29:30;;;;;;;11.38;7.03;;;16.00;99.90;;;;;;4230329;28;20427;-81
2023/08/11 03:31:32;;;;;;;12.15;7.50;;;16.00;99.90;;;;;;4231233;28;20114;-81
2023/08/11 03:33:33;;;;;;;12.18;7.45;;;15.90;99.90;;;;;;4231641;28;20545;-81
2023/08/11 03:35:33;;;;;;;15.07;9.10;;;16.10;99.90;;;;;;4230440;28;20121;-81
2023/08/11 03:37:35;;;;;;;15.00;7.28;;;16.00;99.90;;;;;;4231511;28;20047;-81
2023/08/11 03:39:35;;;;;;;13.32;7.40;;;15.90;99.90;;;;;;4231413;28;20039;-81
2023/08/11 03:41:37;;;;;;;12.23;7.80;;;15.90;99.90;;;;;;4230000;28;20094;-81
2023/08/11 03:43:38;;;;;;;13.15;7.25;;;15.90;99.90;;;;;;4229577;28;20549;-81
2023/08/11 03:45:38;;;;;;;13.77;8.25;;;15.90;99.90;;;;;;4229849;28;20051;-82
2023/08/11 03:47:40;;;;;;;11.75;7.57;;;15.90;99.90;;;;;;4230795;28;20510;-81
2023/08/11 03:49:41;;;;;;;11.30;8.20;;;15.90;99.90;;;;;;4230887;28;20044;-81
2023/08/11 03:51:41;;;;;;;12.77;7.90;;;15.60;99.90;;;;;;4230576;28;20050;-81
2023/08/11 03:53:42;;;;;;;10.25;7.32;;;15.90;99.90;;;;;;4231012;28;20078;-81
2023/08/11 03:55:45;;;;;;;10.98;7.15;;;15.90;99.90;;;;;;4230682;28;20081;-81
2023/08/11 03:57:46;;;;;;;13.15;7.22;;;15.80;99.90;;;;;;4230843;28;20436;-81
2023/08/11 03:59:47;;;;;;;11.35;6.82;;;15.80;99.90;;;;;;4231207;28;20212;-81
2023/08/11 04:01:47;;;;;;;11.68;6.93;;;15.80;99.90;;;;;;4230610;28;20055;-81
2023/08/11 04:03:48;;;;;;;10.25;6.78;;;15.80;99.90;;;;;;4230910;28;20393;-81
2023/08/11 04:05:49;;;;;;;9.02;6.22;;;15.80;99.90;;;;;;4231062;28;20042;-81
2023/08/11 04:07:49;;;;;;;14.68;7.07;;;15.90;99.90;;;;;;4228808;28;20079;-81
2023/08/11 04:09:50;;;;;;;9.98;6.65;;;15.90;99.90;;;;;;4230860;28;20040;-81
2023/08/11 04:11:51;;;;;;;14.95;6.43;;;15.90;99.90;;;;;;4229428;28;20515;-81
2023/08/11 04:13:52;;;;;;;14.32;6.75;;;16.30;99.90;;;;;;4230785;28;20044;-81
2023/08/11 04:15:52;;;;;;;10.50;6.80;;;15.90;99.90;;;;;;4229662;28;20562;-82
2023/08/11 04:17:53;;;;;;;8.80;6.43;;;15.90;99.90;;;;;;4229527;28;20482;-81
2023/08/11 04:19:54;;;;;;;13.57;7.80;;;16.10;99.90;;;;;;4230415;28;20054;-81
2023/08/11 04:21:55;;;;;;;14.43;6.15;;;16.00;99.90;;;;;;4230550;28;20476;-81
2023/08/11 04:23:55;;;;;;;10.23;6.40;;;15.90;99.90;;;;;;4230767;28;20063;-81
2023/08/11 04:25:56;;;;;;;10.45;5.80;;;15.90;99.90;;;;;;4230837;28;20043;-81
2023/08/11 04:27:58;;;;;;;8.73;6.20;;;15.90;99.90;;;;;;4230735;28;20047;-81
2023/08/11 04:29:59;;;;;;;11.55;5.90;;;15.90;99.90;;;;;;4229809;28;20047;-81
2023/08/11 04:32:04;;;;;;;11.75;5.78;;;15.90;99.90;;;;;;4230657;28;20551;-81
2023/08/11 04:34:06;;;;;;;8.80;5.55;;;15.90;99.90;;;;;;4230889;28;20123;-81
2023/08/11 04:36:07;;;;;;;10.88;5.18;;;16.00;99.90;;;;;;4229202;28;20530;-81
2023/08/11 04:38:09;;;;;;;9.02;5.57;;;15.90;99.90;;;;;;4230076;28;20043;-81
2023/08/11 04:40:11;;;;;;;8.10;5.72;;;14.80;99.90;;;;;;4229029;28;20412;-81
2023/08/11 04:42:12;;;;;;;7.55;4.97;;;16.10;99.90;;;;;;4230573;28;20051;-81
2023/08/11 04:44:14;;;;;;;8.57;5.05;;;16.00;99.90;;;;;;4230708;28;20051;-81
2023/08/11 04:46:15;;;;;;;9.25;5.63;;;16.10;99.90;;;;;;4216165;28;20123;-81
2023/08/11 04:48:16;;;;;;;9.43;4.95;;;16.10;99.90;;;;;;4233083;28;20085;-81
2023/08/11 04:50:17;;;;;;;6.95;4.78;;;16.20;99.90;;;;;;4215562;28;20044;-81
2023/08/11 04:52:18;;;;;;;8.88;5.10;;;16.20;99.90;;;;;;4233426;28;20050;-81
2023/08/11 04:54:18;;;;;;;10.85;5.32;;;16.20;99.90;;;;;;4233991;28;20039;-81
2023/08/11 04:56:20;;;;;;;12.05;5.72;;;16.30;99.90;;;;;;4232328;28;20411;-81
2023/08/11 04:58:21;;;;;;;6.95;4.30;;;16.20;99.90;;;;;;4234385;28;20662;-81
2023/08/11 05:00:22;;;;;;;9.68;5.05;;;16.30;99.90;;;;;;4233221;28;20130;-81
2023/08/11 05:02:23;;;;;;;8.48;5.07;;;16.30;99.90;;;;;;4233662;28;20040;-80
2023/08/11 05:04:24;;;;;;;11.35;4.70;;;16.30;99.90;;;;;;4233949;28;20040;-80
2023/08/11 05:06:24;;;;;;;10.25;5.50;;;16.30;99.90;;;;;;4233181;28;20079;-80
2023/08/11 05:08:25;;;;;;;9.50;4.90;;;16.30;99.90;;;;;;4233718;28;20570;-80
2023/08/11 05:10:26;;;;;;;8.27;5.40;;;16.30;99.90;;;;;;4233532;28;20092;-80
2023/08/11 05:12:26;;;;;;;9.70;5.15;;;16.40;99.90;;;;;;4233351;28;20085;-80
2023/08/11 05:14:27;;;;;;;10.48;5.35;;;16.40;99.90;;;;;;4233599;28;20411;-80
2023/08/11 05:16:28;;;;;;;9.13;4.93;;;16.40;99.90;;;;;;4233064;28;20097;-80
2023/08/11 05:18:29;;;;;;;9.48;5.45;;;16.40;99.90;;;;;;4233304;27;20483;-80
2023/08/11 05:20:30;;;;;;;9.13;5.10;;;16.50;99.90;;;;;;4233712;28;20047;-80
2023/08/11 05:22:31;;;;;;;9.52;5.25;;;16.30;99.90;;;;;;4233447;28;20036;-80
2023/08/11 05:24:32;;;;;;;12.77;5.50;;;16.20;99.90;;;;;;4231785;28;20046;-80
2023/08/11 05:26:32;;;;;;;9.45;5.88;;;16.60;99.90;;;;;;4233321;28;20185;-80
2023/08/11 05:28:33;;;;;;;10.93;5.75;;;16.80;99.90;;;;;;4233486;28;20043;-80
2023/08/11 05:30:34;;;;;;;11.07;6.00;;;16.70;99.90;;;;;;4233334;28;20038;-80
2023/08/11 05:32:35;;;;;;;11.68;5.30;;;16.70;99.90;;;;;;4233495;28;20445;-80
2023/08/11 05:34:35;;;;;;;9.80;5.43;;;16.80;99.90;;;;;;4232251;28;20051;-80
2023/08/11 05:36:36;;;;;;;10.45;5.30;;;16.90;99.90;;;;;;4232773;28;20063;-80
2023/08/11 05:38:37;;;;;;;8.55;5.28;;;16.80;99.90;;;;;;4233310;28;20036;-80
2023/08/11 05:40:38;;;;;;;9.88;5.55;;;16.90;99.90;;;;;;4233450;28;20043;-80
2023/08/11 05:42:39;;;;;;;14.20;5.57;;;17.00;99.90;;;;;;4232984;28;20483;-80
2023/08/11 05:44:40;;;;;;;8.50;5.10;;;17.10;99.90;;;;;;4234014;28;20043;-80
2023/08/11 05:46:40;;;;;;;10.38;4.95;;;17.10;99.90;;;;;;4232765;28;20074;-80
2023/08/11 05:48:42;;;;;;;10.23;5.18;;;17.20;99.90;;;;;;4214605;28;20040;-80
2023/08/11 05:50:44;;;;;;;13.25;4.85;;;17.20;99.90;;;;;;4231883;28;20173;-79
2023/08/11 05:52:45;;;;;;;12.00;5.57;;;17.20;99.90;;;;;;4233080;28;20043;-80
2023/08/11 05:54:46;;;;;;;10.73;5.72;;;17.30;99.90;;;;;;4231368;28;20511;-80
2023/08/11 05:56:47;;;;;;;8.70;5.55;;;17.30;99.90;;;;;;4215071;28;20495;-80
2023/08/11 05:58:47;;;;;;;8.15;4.97;;;17.40;99.90;;;;;;4233161;28;20043;-79
2023/08/11 06:00:48;;;;;;;7.05;5.47;;;17.40;99.90;;;;;;4231300;28;20051;-80
2023/08/11 06:02:49;;;;;;;8.63;5.25;;;17.50;99.90;;;;;;4231453;28;20399;-80
2023/08/11 06:04:51;;;;;;;8.30;5.32;;;17.50;99.90;;;;;;4233189;28;20088;-80
2023/08/11 06:06:51;;;;;;;9.50;5.20;;;17.60;99.90;;;;;;4232508;28;20069;-80
2023/08/11 06:08:54;;;;;;;11.73;4.95;;;17.60;99.90;;;;;;4232750;28;20039;-80
2023/08/11 06:10:55;;;;;;;9.95;5.05;;;17.70;99.90;;;;;;4214254;28;20044;-80
2023/08/11 06:12:55;;;;;;;11.43;5.05;;;17.70;99.90;;;;;;4230541;28;20066;-80
2023/08/11 06:14:56;;;;;;;7.85;5.03;;;17.80;99.90;;;;;;4232681;28;20048;-80
2023/08/11 06:16:57;;;;;;;8.77;5.13;;;17.80;99.90;;;;;;4232686;28;20043;-80
2023/08/11 06:18:58;;;;;;;7.28;4.63;;;17.90;99.90;;;;;;4232460;28;20059;-81
2023/08/11 06:21:00;;;;;;;11.02;5.00;;;18.00;99.90;;;;;;4231462;28;20116;-81
2023/08/11 06:23:01;;;;;;;10.38;4.57;;;18.10;99.90;;;;;;4231111;28;20044;-81
2023/08/11 06:25:02;;;;;;;8.35;4.72;;;18.10;99.90;;;;;;4231431;28;20472;-81
2023/08/11 06:27:03;;;;;;;7.93;4.30;;;18.20;99.90;;;;;;4231912;28;20036;-81
2023/08/11 06:29:04;;;;;;;11.45;4.22;;;18.30;99.90;;;;;;4232463;28;20043;-81
2023/08/11 06:31:04;;;;;;;10.20;4.82;;;17.10;99.90;;;;;;4232361;28;20040;-81
2023/08/11 06:33:05;;;;;;;7.47;3.88;;;18.40;99.90;;;;;;4230796;28;20150;-81
2023/08/11 06:35:07;;;;;;;5.68;3.90;;;18.50;99.90;;;;;;4232254;28;20051;-81
2023/08/11 06:37:08;;;;;;;8.35;4.28;;;18.60;99.90;;;;;;4231638;28;20047;-81
2023/08/11 06:39:10;;;;;;;7.07;3.65;;;18.70;99.90;;;;;;4231999;28;20100;-81
2023/08/11 06:41:11;;;;;;;10.15;4.30;;;18.70;99.90;;;;;;4231877;28;20059;-81
2023/08/11 06:43:12;;;;;;;8.25;3.83;;;18.80;99.90;;;;;;4231858;28;20055;-81
2023/08/11 06:45:13;;;;;;;7.38;4.28;;;18.90;99.90;;;;;;4230418;28;20066;-80
2023/08/11 06:47:13;;;;;;;5.82;3.70;;;19.00;99.90;;;;;;4230817;28;20130;-81
2023/08/11 06:49:14;;;;;;;6.75;3.47;;;19.10;99.90;;;;;;4231944;28;20180;-81
2023/08/11 06:51:15;;;;;;;10.90;4.05;;;19.10;99.90;;;;;;4230160;28;20046;-81
2023/08/11 06:53:16;;;;;;;5.88;3.65;;;19.20;99.90;;;;;;4230769;28;20055;-81
2023/08/11 06:55:17;;;;;;;7.30;4.03;;;19.30;99.90;;;;;;4232228;28;20488;-81
2023/08/11 06:57:20;;;;;;;5.53;3.25;;;19.30;99.90;;;;;;4231949;28;20043;-81
2023/08/11 06:59:21;;;;;;;6.18;3.60;;;19.50;99.90;;;;;;4230410;28;20070;-81
2023/08/11 07:01:22;;;;;;;5.88;3.83;;;19.50;99.90;;;;;;4231558;28;20040;-81
2023/08/11 07:03:23;;;;;;;6.32;3.55;;;19.60;99.90;;;;;;4232113;28;20480;-81
2023/08/11 07:05:23;;;;;;;6.45;3.90;;;19.70;99.90;;;;;;4213503;28;20054;-81
2023/08/11 07:07:24;;;;;;;6.57;3.33;;;19.80;99.90;;;;;;4229404;28;20553;-81
2023/08/11 07:09:25;;;;;;;6.38;3.22;;;19.90;99.90;;;;;;4232028;27;20055;-81
2023/08/11 07:11:26;;;;;;;9.10;3.80;;;19.90;99.90;;;;;;4231654;28;20085;-81
2023/08/11 07:13:27;;;;;;;6.43;3.38;;;20.10;99.90;;;;;;4213568;28;20127;-81
2023/08/11 07:15:27;;;;;;;5.60;3.65;;;20.10;99.90;;;;;;4231582;28;20070;-81
2023/08/11 07:17:28;;;;;;;8.13;3.28;;;20.20;99.90;;;;;;4231372;28;20131;-81
2023/08/11 07:19:29;;;;;;;6.90;3.45;;;20.30;99.90;;;;;;4231580;28;20055;-81
2023/08/11 07:21:30;;;;;;;5.47;3.50;;;20.40;99.90;;;;;;4231382;28;20094;-81
2023/08/11 07:23:30;;;;;;;9.20;3.05;;;20.40;99.90;;;;;;4231614;28;20047;-81
2023/08/11 07:25:31;;;;;;;10.40;3.70;;;20.50;99.90;;;;;;4231113;28;20078;-81
2023/08/11 07:27:32;;;;;;;6.65;3.33;;;20.60;99.90;;;;;;4231351;27;20039;-81
2023/08/11 07:29:32;;;;;;;5.75;3.08;;;20.70;99.90;;;;;;4231742;28;20042;-81
2023/08/11 07:31:33;;;;;;;5.03;3.13;;;20.80;99.90;;;;;;4230364;28;20047;-81
2023/08/11 07:33:34;;;;;;;9.93;3.00;;;20.80;99.90;;;;;;4251118;28;20051;-81
2023/08/11 07:35:34;;;;;;;7.38;3.17;;;20.90;99.90;;;;;;4237189;28;20050;-80
2023/08/11 07:37:35;;;;;;;5.22;2.70;;;21.00;99.90;;;;;;4230804;28;20047;-81
2023/08/11 07:39:36;;;;;;;7.13;3.08;;;21.10;99.90;;;;;;4231232;28;20519;-81
2023/08/11 07:41:37;;;;;;;5.57;2.63;;;21.10;99.90;;;;;;4231126;28;20669;-81
2023/08/11 07:43:37;;;;;;;7.43;2.92;;;21.30;99.90;;;;;;4231300;28;20047;-81
2023/08/11 07:45:38;;;;;;;4.97;3.22;;;21.40;99.90;;;;;;4231280;28;20043;-81
2023/08/11 07:47:39;;;;;;;8.65;2.40;;;21.40;99.90;;;;;;4230164;28;20495;-81
2023/08/11 07:49:40;;;;;;;5.30;3.13;;;21.50;99.90;;;;;;4230590;28;20510;-81
2023/08/11 07:51:40;;;;;;;5.78;3.10;;;21.60;99.90;;;;;;4229608;28;20464;-81
2023/08/11 07:53:44;;;;;;;4.85;3.10;;;21.70;99.90;;;;;;4231173;28;20047;-81
2023/08/11 07:55:45;;;;;;;3.88;2.85;;;21.80;99.90;;;;;;4230901;28;20050;-81
2023/08/11 07:57:45;;;;;;;8.95;2.92;;;21.90;99.90;;;;;;4229568;28;20526;-81
2023/08/11 07:59:46;;;;;;;6.15;2.60;;;22.00;99.90;;;;;;4230932;28;20047;-81
2023/08/11 08:01:47;;;;;;;8.27;2.47;;;22.00;99.90;;;;;;4230251;28;20499;-81
2023/08/11 08:03:48;;;;;;;9.82;3.10;;;22.10;99.90;;;;;;4231322;28;20040;-80
2023/08/11 08:05:48;;;;;;;5.13;3.03;;;22.30;99.90;;;;;;4231239;28;20048;-81
2023/08/11 08:07:49;;;;;;;5.35;3.50;;;22.30;99.90;;;;;;4229450;28;20043;-81
2023/08/11 08:09:50;;;;;;;4.72;2.90;;;22.40;99.90;;;;;;4230729;28;20043;-81
2023/08/11 08:11:51;;;;;;;5.95;2.63;;;22.40;99.90;;;;;;4230301;28;20036;-81
2023/08/11 08:13:52;;;;;;;8.20;2.70;;;22.50;99.90;;;;;;4230963;28;20106;-81
2023/08/11 08:15:53;;;;;;;7.60;2.70;;;22.50;99.90;;;;;;4230923;28;20134;-80
2023/08/11 08:17:54;;;;;;;5.78;2.88;;;22.60;99.90;;;;;;4230007;28;20124;-81
2023/08/11 08:19:54;;;;;;;6.03;2.97;;;22.70;99.90;;;;;;4212374;28;20466;-81
2023/08/11 08:21:55;;;;;;;8.00;3.10;;;22.90;99.90;;;;;;4230264;28;20537;-81
2023/08/11 08:23:56;;;;;;;6.03;2.80;;;23.00;99.90;;;;;;4230494;28;20051;-81
2023/08/11 08:25:57;;;;;;;9.25;2.67;;;23.10;99.90;;;;;;4230607;28;20036;-81
2023/08/11 08:27:57;;;;;;;4.57;2.70;;;23.30;99.90;;;;;;4212446;28;20497;-80
2023/08/11 08:29:58;;;;;;;7.78;2.95;;;23.30;99.90;;;;;;4229267;28;20122;-81
2023/08/11 08:31:59;;;;;;;6.97;2.80;;;23.30;99.90;;;;;;4230808;28;20543;-81
2023/08/11 08:34:00;;;;;;;5.00;2.78;;;23.30;99.90;;;;;;4231191;28;20044;-81
2023/08/11 08:36:00;;;;;;;5.30;2.60;;;23.50;99.90;;;;;;4229288;28;20081;-81
2023/08/11 08:38:01;;;;;;;7.50;3.00;;;23.50;99.90;;;;;;4230801;28;20050;-80
2023/08/11 08:40:04;;;;;;;5.95;2.80;;;23.70;99.90;;;;;;4231533;28;20510;-81
2023/08/11 08:42:05;;;;;;;4.30;2.53;;;23.70;99.90;;;;;;4230397;28;20075;-81
2023/08/11 08:44:06;;;;;;;4.93;2.70;;;23.80;99.90;;;;;;4229024;28;20052;-81
2023/08/11 08:46:08;;;;;;;5.15;2.90;;;23.80;99.90;;;;;;4231068;28;20070;-81
2023/08/11 08:48:30;;;;;;;3.72;2.30;;;24.00;99.90;;;;;;4229644;28;20553;-81
2023/08/11 08:50:31;;;;;;;6.53;2.75;;;24.00;99.90;;;;;;4231156;28;20039;-81
2023/08/11 08:52:33;;;;;;;6.55;2.78;;;24.20;99.90;;;;;;4240875;28;20059;-80
2023/08/11 08:54:35;;;;;;;8.48;3.03;;;24.20;99.90;;;;;;4249093;28;20048;-81
2023/08/11 08:56:40;;;;;;;5.55;2.45;;;24.20;99.90;;;;;;4242481;28;20540;-81
2023/08/11 08:58:42;;;;;;;4.07;2.83;;;24.30;99.90;;;;;;4212412;28;20102;-81
2023/08/11 09:00:44;;;;;;;6.32;2.65;;;24.40;99.90;;;;;;4229394;28;20122;-81
2023/08/11 09:02:45;;;;;;;7.40;2.75;;;24.60;99.90;;;;;;4230066;28;20449;-81
2023/08/11 09:04:47;;;;;;;5.38;2.85;;;24.60;99.90;;;;;;4230009;28;20408;-81
2023/08/11 09:06:50;;;;;;;5.97;2.65;;;24.80;99.90;;;;;;4231824;28;20059;-80
2023/08/11 09:08:50;;;;;;;5.40;2.30;;;24.80;99.90;;;;;;4233972;28;20040;-80
2023/08/11 09:10:51;;;;;;;8.05;2.80;;;24.90;99.90;;;;;;4233358;28;20047;-81
2023/08/11 09:12:52;;;;;;;4.15;2.50;;;24.90;99.90;;;;;;4228082;28;20105;-81
2023/08/11 09:14:53;;;;;;;5.47;2.58;;;25.00;99.90;;;;;;4230217;28;20048;-81
2023/08/11 09:16:54;;;;;;;5.05;2.67;;;25.10;99.90;;;;;;4229790;28;20560;-81
2023/08/11 09:18:55;;;;;;;5.43;2.83;;;25.20;99.90;;;;;;4228982;28;20095;-81
2023/08/11 09:20:56;;;;;;;4.85;2.40;;;25.30;99.90;;;;;;4228902;28;20104;-81
2023/08/11 09:22:58;;;;;;;4.60;2.25;;;25.40;99.90;;;;;;4228696;28;20513;-81
2023/08/11 09:24:59;;;;;;;6.40;2.63;;;25.60;99.90;;;;;;4228758;28;20118;-81
2023/08/11 09:27:00;;;;;;;7.30;2.50;;;25.60;99.90;;;;;;4228444;28;20691;-81
2023/08/11 09:29:00;;;;;;;3.83;2.10;;;25.60;99.90;;;;;;4230199;28;20054;-81
2023/08/11 09:31:01;;;;;;;4.50;2.55;;;25.70;99.90;;;;;;4230851;28;20048;-80
2023/08/11 09:33:03;;;;;;;3.50;2.22;;;25.70;99.90;;;;;;4231635;28;20051;-81
2023/08/11 09:35:12;;;;;;;3.00;2.15;;;25.80;99.90;;;;;;4231898;28;20085;-81
2023/08/11 09:37:13;;;;;;;9.57;2.63;;;26.00;99.90;;;;;;4232332;28;20043;-81
2023/08/11 09:39:14;;;;;;;6.75;2.83;;;25.90;99.90;;;;;;4231643;28;20431;-81
2023/08/11 09:41:15;;;;;;;4.40;1.75;;;25.90;99.90;;;;;;4231674;28;20039;-81
2023/08/11 09:43:16;;;;;;;3.42;1.95;;;26.00;99.90;;;;;;4232996;28;20047;-81
2023/08/11 09:45:18;;;;;;;4.15;1.98;;;26.20;99.90;;;;;;4231818;28;20406;-81
2023/08/11 09:47:19;;;;;;;5.00;2.17;;;26.30;99.90;;;;;;4231080;28;20131;-81
2023/08/11 09:49:19;;;;;;;4.45;2.08;;;26.50;99.90;;;;;;4232830;28;20406;-81
2023/08/11 09:51:20;;;;;;;3.25;2.08;;;26.40;99.90;;;;;;4232907;28;20143;-81
2023/08/11 09:53:23;;;;;;;4.50;2.17;;;26.30;99.90;;;;;;4232900;28;20040;-81
2023/08/11 09:55:25;;;;;;;5.03;1.95;;;26.40;99.90;;;;;;4214699;28;20056;-81
2023/08/11 09:57:27;;;;;;;2.70;1.88;;;26.50;99.90;;;;;;4232824;28;20047;-81
2023/08/11 09:59:28;;;;;;;8.52;2.20;;;26.60;99.90;;;;;;4231106;28;20071;-81
2023/08/11 10:01:33;;;;;;;6.00;1.85;;;26.70;99.90;;;;;;4231777;28;20043;-81
2023/08/11 10:03:41;;;;;;;7.18;2.80;;;26.70;99.90;;;;;;4231512;28;20495;-80
2023/08/11 10:05:44;;;;;;;3.08;1.63;;;26.80;99.90;;;;;;4232981;28;20040;-80
2023/08/11 10:07:50;;;;;;;5.55;2.70;;;26.80;99.90;;;;;;4232513;27;20411;-81
2023/08/11 10:09:52;;;;;;;5.78;2.08;;;26.90;99.90;;;;;;4232977;28;20051;-80
2023/08/11 10:11:55;;;;;;;3.78;2.00;;;26.90;99.90;;;;;;4230879;28;20511;-81
2023/08/11 10:13:56;;;;;;;3.08;1.88;;;27.00;99.90;;;;;;4231552;28;20503;-81
2023/08/11 10:15:57;;;;;;;5.13;1.63;;;27.10;99.90;;;;;;4214552;28;20054;-81
2023/08/11 10:17:59;;;;;;;7.97;1.58;;;27.20;99.90;;;;;;4231140;28;20095;-81
2023/08/11 10:20:04;;;;;;;6.00;1.90;;;27.30;99.90;;;;;;4231668;28;20062;-81
2023/08/11 10:22:06;;;;;;;6.43;2.22;;;27.40;99.80;;;;;;4232288;27;20099;-80
2023/08/11 10:24:07;;;;;;;3.95;1.90;;;27.40;99.80;;;;;;4214013;28;20048;-80
2023/08/11 10:26:08;;;;;;;6.38;1.70;;;27.40;99.10;;;;;;4232546;28;20142;-80
2023/08/11 10:28:12;;;;;;;4.35;2.15;;;27.30;98.90;;;;;;4232428;28;20039;-80
2023/08/11 10:30:16;;;;;;;4.65;1.70;;;27.20;98.90;;;;;;4231151;28;20047;-80
2023/08/11 10:32:17;;;;;;;4.18;1.75;;;27.20;98.90;;;;;;4231012;28;20499;-80